Sign-in with your pilot id or email, or register

ICAO: EPKT Name / Country: Katowice / Poland
Latitude: 50.4743 Longitude: 19.08
Total Arrivals:
Strict Standards: Non-static method AirportData::getarrflights() should not be called statically, assuming $this from incompatible context in /var/www/customers/vh-7192/web/home/phpvms/core/templates/airport_info.tpl on line 18
1
Total Departures:
Strict Standards: Non-static method AirportData::getdeptflights() should not be called statically, assuming $this from incompatible context in /var/www/customers/vh-7192/web/home/phpvms/core/templates/airport_info.tpl on line 21
2
Latest Arrival: MTA11P (LHBP-EPKT) Tibor Berces Latest Departure: MTA11P (EPKT-LHDC) Tibor Berces
Metar: EPKT 270900Z 23008KT 9999 FEW015 SCT018 09/06 Q1004
More info

Charts for EPKT


NOTAM


Warning: file_get_contents(http://api.vateud.net/notams/EPKT.json): failed to open stream: Redirection limit reached, aborting in /var/www/customers/vh-7192/web/home/phpvms/core/common/NOTAMSData.class.php on line 18

Warning: Invalid argument supplied for foreach() in /var/www/customers/vh-7192/web/home/phpvms/core/common/NOTAMSData.class.php on line 22

Katowice